Terminal Aerodrome Forecast
Issued by NWS

Home | Current Version | Previous Version | Text Only | Print | Product List | Glossary On
Versions: 1 2 3 4 5 6 7 8 9 10 11 12 13 14 15 16 17 18 19
000
FTAK31 PAFA 220539
TAFAQT
TAF
PAQT 220539Z 2206/2306 18008KT P6SM VCFG SCT080
     FM220900 16005KT 5SM BR BKN070
     FM221500 07005KT 5SM -SN BKN040=

USA.gov is the U.S. government's official web portal to all federal, state and local government web resources and services.